M I D A S
Marine Information and Data Acquisition System
Tripno 1336 of the Zeeleeuw from 2007-06-14 07:15:33 to 2007-06-14 17:00:00
Back to CruiseResearch ActivitiesStationsMapUnderway DataData graphs

EquipmentUnitsComment
TimeDGPSUTC
LatitudeDGPSDM.mWGS84
LongitudeDGPSDM.mWGS84
HeadingGyrodeg 
SOGDGPSknotsSpeed over ground
COGDGPSdegCourse over ground
DepthEcho soundermeters200 kHz
Missing or incorrect values are displayed as -999
Navigation data collected by the RV Zeeleeuw from 2007-06-14 07:06:23 to 2007-06-14 15:25:06
                                                                                    Next 1000 lines
Time Latitude Longitude Heading SOG COG Depth
2007-06-14 07:06:32 51°13.601 2°56.096 126.6 0.2 318 7.4
2007-06-14 07:06:39 51°13.602 2°56.095 127.5 0.4 323 7.4
2007-06-14 07:06:43 51°13.602 2°56.094 127.6 0.4 317 7.5
2007-06-14 07:06:47 51°13.602 2°56.094 126.1 0.1 282 7.6
2007-06-14 07:06:52 51°13.602 2°56.095 124.7 0.2 104 5.6
2007-06-14 07:06:57 51°13.602 2°56.095 124.2 0.2 146 7.6
2007-06-14 07:07:03 51°13.602 2°56.095 124.3 0.2 126 5.6
2007-06-14 07:07:07 51°13.602 2°56.096 125.4 0.1 118 7.5
2007-06-14 07:07:12 51°13.602 2°56.095 126.1 0.1 141 -999
2007-06-14 07:07:17 51°13.601 2°56.095 126.1 -999 157 7.5
2007-06-14 07:07:23 51°13.6 2°56.095 126.4 -999 251 7.5
2007-06-14 07:07:27 51°13.6 2°56.095 126.6 -999 268 7.5
2007-06-14 07:07:32 51°13.6 2°56.095 126.8 -999 195 7.4
2007-06-14 07:07:37 51°13.6 2°56.094 126.8 -999 319 7.5
2007-06-14 07:07:43 51°13.6 2°56.094 126.7 -999 251 7.5
2007-06-14 07:07:47 51°13.6 2°56.094 126.3 -999 245 7.5
2007-06-14 07:07:52 51°13.6 2°56.094 126.2 -999 320 7.5
2007-06-14 07:07:57 51°13.6 2°56.094 126.1 -999 297 7.5
2007-06-14 07:08:03 51°13.6 2°56.094 125.9 -999 328 5.6
2007-06-14 07:08:07 51°13.601 2°56.094 125.7 -999 83 7.6
2007-06-14 07:08:13 51°13.601 2°56.094 125.7 -999 158 5.6
2007-06-14 07:08:17 51°13.601 2°56.094 125.7 -999 135 7.5
2007-06-14 07:08:23 51°13.601 2°56.094 125.7 -999 184 5.6
2007-06-14 07:08:27 51°13.601 2°56.094 125.7 -999 198 7.6
2007-06-14 07:08:32 51°13.601 2°56.094 125.7 -999 139 7.5
2007-06-14 07:08:39 51°13.601 2°56.094 125.7 -999 101 7.5
2007-06-14 07:08:43 51°13.601 2°56.095 125.7 -999 60 7.5
2007-06-14 07:08:47 51°13.601 2°56.095 125.7 -999 210 7.5
2007-06-14 07:08:52 51°13.601 2°56.095 125.7 -999 341 7.5
2007-06-14 07:08:59 51°13.601 2°56.095 125.7 0.1 353 5.6
2007-06-14 07:09:03 51°13.601 2°56.095 125.7 -999 187 7.5
2007-06-14 07:09:07 51°13.601 2°56.095 125.7 -999 113 5.6
2007-06-14 07:09:13 51°13.601 2°56.095 125.6 -999 6 7.5
2007-06-14 07:09:17 51°13.601 2°56.095 125.5 -999 193 7.5
2007-06-14 07:09:23 51°13.601 2°56.094 125.5 -999 356 7.5
2007-06-14 07:09:28 51°13.601 2°56.094 125.5 -999 41 7.5
2007-06-14 07:09:33 51°13.601 2°56.094 125.5 -999 67 7.5
2007-06-14 07:09:38 51°13.601 2°56.094 125.5 -999 318 7.6
2007-06-14 07:09:43 51°13.601 2°56.094 125.5 -999 156 7.5
2007-06-14 07:09:48 51°13.601 2°56.094 125.5 -999 8 7.5
2007-06-14 07:09:52 51°13.601 2°56.094 125.5 -999 322 7.6
2007-06-14 07:09:57 51°13.601 2°56.094 125.5 -999 353 7.5
2007-06-14 07:10:03 51°13.601 2°56.094 125.6 -999 106 5.6
2007-06-14 07:10:07 51°13.601 2°56.094 125.6 -999 169 7.5
2007-06-14 07:10:12 51°13.601 2°56.094 125.6 -999 316 7.6
2007-06-14 07:10:17 51°13.6 2°56.094 125.6 0.1 355 7.5
2007-06-14 07:10:23 51°13.599 2°56.094 125.6 -999 338 7.5
2007-06-14 07:10:27 51°13.599 2°56.093 125.6 0.1 169 7.5
2007-06-14 07:10:32 51°13.599 2°56.093 125.6 0.1 146 7.5
2007-06-14 07:10:37 51°13.599 2°56.093 125.6 -999 119 5.6
2007-06-14 07:10:43 51°13.6 2°56.094 125.6 -999 119 7.6
2007-06-14 07:10:48 51°13.6 2°56.094 125.6 -999 325 7.6
2007-06-14 07:10:53 51°13.6 2°56.094 125.6 -999 321 7.6
2007-06-14 07:10:59 51°13.6 2°56.094 125.7 -999 174 7.6
2007-06-14 07:11:03 51°13.601 2°56.094 125.7 -999 160 7.6
2007-06-14 07:11:08 51°13.601 2°56.094 125.7 -999 170 7.6
2007-06-14 07:11:13 51°13.601 2°56.094 125.7 -999 93 7.6
2007-06-14 07:11:17 51°13.601 2°56.094 125.7 -999 17 5.6
2007-06-14 07:11:23 51°13.601 2°56.094 125.6 -999 24 7.5
2007-06-14 07:11:28 51°13.601 2°56.094 125.6 -999 182 7.5
2007-06-14 07:11:33 51°13.601 2°56.094 125.6 -999 333 7.5
2007-06-14 07:11:37 51°13.601 2°56.094 125.6 -999 116 7.5
2007-06-14 07:11:43 51°13.601 2°56.094 125.6 -999 333 7.5
2007-06-14 07:11:48 51°13.601 2°56.094 125.6 -999 26 7.5
2007-06-14 07:11:53 51°13.601 2°56.094 125.6 -999 176 7.5
2007-06-14 07:11:57 51°13.601 2°56.094 125.6 -999 307 7.6
2007-06-14 07:12:03 51°13.602 2°56.094 125.6 -999 238 7.6
2007-06-14 07:12:07 51°13.601 2°56.094 125.6 -999 183 7.6
2007-06-14 07:12:12 51°13.601 2°56.094 125.6 -999 29 7.6
2007-06-14 07:12:17 51°13.602 2°56.094 125.6 0.1 338 7.6
2007-06-14 07:12:23 51°13.601 2°56.094 125.6 -999 338 5.6
2007-06-14 07:12:27 51°13.601 2°56.094 125.6 -999 210 7.6
2007-06-14 07:12:32 51°13.601 2°56.095 125.6 -999 358 7.6
2007-06-14 07:12:39 51°13.601 2°56.095 125.6 -999 333 7.6
2007-06-14 07:12:43 51°13.601 2°56.095 125.6 -999 334 7.6
2007-06-14 07:12:47 51°13.601 2°56.095 125.6 -999 115 7.6
2007-06-14 07:12:52 51°13.601 2°56.095 125.6 -999 108 7.6
2007-06-14 07:12:57 51°13.601 2°56.095 125.6 -999 184 7.6
2007-06-14 07:13:03 51°13.602 2°56.095 125.6 -999 184 7.6
2007-06-14 07:13:07 51°13.602 2°56.095 125.6 -999 342 7.6
2007-06-14 07:13:12 51°13.602 2°56.094 125.6 -999 151 7.6
2007-06-14 07:13:19 51°13.602 2°56.095 125.5 -999 348 7.6
2007-06-14 07:13:23 51°13.602 2°56.095 125.5 -999 185 7.6
2007-06-14 07:13:27 51°13.602 2°56.095 125.5 -999 168 7.6
2007-06-14 07:13:32 51°13.602 2°56.095 125.5 -999 161 7.6
2007-06-14 07:13:39 51°13.602 2°56.095 125.5 -999 150 7.6
2007-06-14 07:13:43 51°13.602 2°56.095 125.5 -999 162 7.6
2007-06-14 07:13:47 51°13.602 2°56.095 125.5 -999 338 7.6
2007-06-14 07:13:52 51°13.602 2°56.095 125.5 -999 355 5.6
2007-06-14 07:13:57 51°13.602 2°56.095 125.5 -999 177 7.6
2007-06-14 07:14:03 51°13.602 2°56.095 125.5 0.1 162 5.6
2007-06-14 07:14:07 51°13.602 2°56.095 125.5 -999 99 7.5
2007-06-14 07:14:12 51°13.602 2°56.095 125.5 -999 321 7.6
2007-06-14 07:14:17 51°13.602 2°56.095 125.5 -999 345 7.6
2007-06-14 07:14:23 51°13.602 2°56.095 125.5 -999 352 7.6
2007-06-14 07:14:27 51°13.602 2°56.095 125.5 -999 112 7.6
2007-06-14 07:14:32 51°13.602 2°56.095 125.5 -999 334 7.6
2007-06-14 07:14:37 51°13.602 2°56.095 125.5 -999 354 7.6
2007-06-14 07:14:43 51°13.602 2°56.095 125.5 -999 206 7.6
2007-06-14 07:14:48 51°13.602 2°56.095 125.5 -999 338 7.5
2007-06-14 07:14:53 51°13.602 2°56.095 125.5 -999 28 7.6
2007-06-14 07:14:57 51°13.602 2°56.095 125.5 -999 180 7.6
2007-06-14 07:15:02 51°13.602 2°56.095 125.5 -999 320 5.6
2007-06-14 07:15:08 51°13.602 2°56.095 125.5 -999 293 7.6
2007-06-14 07:15:13 51°13.602 2°56.095 125.5 -999 144 -999
2007-06-14 07:15:18 51°13.602 2°56.095 125.5 -999 169 7.6
2007-06-14 07:15:23 51°13.602 2°56.095 125.3 -999 286 7.6
2007-06-14 07:15:28 51°13.601 2°56.095 125.2 -999 242 7.6
2007-06-14 07:15:33 51°13.601 2°56.095 125.1 0.1 168 7.6
2007-06-14 07:15:39 51°13.602 2°56.096 124.8 0.1 144 7.6
2007-06-14 07:15:43 51°13.602 2°56.096 124.6 0.1 141 7.6
2007-06-14 07:15:48 51°13.602 2°56.097 124.1 0.1 146 7.5
2007-06-14 07:15:53 51°13.602 2°56.097 123.8 0.1 133 7.6
2007-06-14 07:15:58 51°13.602 2°56.096 123.4 -999 253 7.6
2007-06-14 07:16:03 51°13.601 2°56.096 123.1 -999 200 7.6
2007-06-14 07:16:08 51°13.601 2°56.096 123 0.1 211 7.6
2007-06-14 07:16:13 51°13.601 2°56.095 122.7 -999 205 7.6
2007-06-14 07:16:17 51°13.601 2°56.095 122.6 -999 269 7.6
2007-06-14 07:16:23 51°13.599 2°56.094 122.5 0.1 304 7.5
2007-06-14 07:16:28 51°13.598 2°56.094 122.4 0.1 231 7.6
2007-06-14 07:16:32 51°13.598 2°56.094 122.3 -999 255 7.6
2007-06-14 07:16:37 51°13.598 2°56.094 122.2 -999 266 7.6
2007-06-14 07:16:43 51°13.598 2°56.093 122.2 -999 318 7.6
2007-06-14 07:16:47 51°13.598 2°56.094 122.2 0.1 139 5.6
2007-06-14 07:16:53 51°13.598 2°56.094 121.9 0.1 125 7.6
2007-06-14 07:16:58 51°13.598 2°56.094 121.4 0.1 111 7.6
2007-06-14 07:17:03 51°13.598 2°56.094 121 0.1 100 7.7
2007-06-14 07:17:07 51°13.598 2°56.094 120.4 0.1 128 7.6
2007-06-14 07:17:13 51°13.598 2°56.095 119.7 0.1 134 7.7
2007-06-14 07:17:17 51°13.598 2°56.095 119 -999 108 7.6
2007-06-14 07:17:23 51°13.598 2°56.095 118.5 0.1 142 7.6
2007-06-14 07:17:28 51°13.598 2°56.095 117.9 0.1 148 7.6
2007-06-14 07:17:33 51°13.598 2°56.095 116.8 0.1 153 7.6
2007-06-14 07:17:37 51°13.598 2°56.095 115 0.1 231 7.6
2007-06-14 07:17:43 51°13.598 2°56.094 113.8 0.2 266 7.5
2007-06-14 07:17:47 51°13.597 2°56.094 112.7 0.3 273 7.6
2007-06-14 07:17:53 51°13.597 2°56.093 112.1 0.5 284 7.6
2007-06-14 07:17:58 51°13.598 2°56.091 111.7 0.8 289 7.6
2007-06-14 07:18:03 51°13.599 2°56.089 111.4 1 293 7.6
2007-06-14 07:18:08 51°13.599 2°56.086 111.3 1.2 290 7.7
2007-06-14 07:18:13 51°13.599 2°56.083 111.3 1.5 293 7.8
2007-06-14 07:18:17 51°13.6 2°56.08 111.4 1.7 291 7.9
2007-06-14 07:18:23 51°13.601 2°56.076 111.9 1.8 294 -999
2007-06-14 07:18:28 51°13.602 2°56.072 112.3 1.9 291 -999
2007-06-14 07:18:33 51°13.604 2°56.068 112.3 2 293 -999
2007-06-14 07:18:37 51°13.605 2°56.064 112.3 1.9 291 -999
2007-06-14 07:18:43 51°13.606 2°56.06 112.1 1.9 291 -999
2007-06-14 07:18:49 51°13.607 2°56.056 111.7 1.6 292 -999
2007-06-14 07:18:53 51°13.607 2°56.055 111.5 1 292 -999
2007-06-14 07:18:57 51°13.608 2°56.054 111.7 0.3 307 -999
2007-06-14 07:19:03 51°13.607 2°56.055 113.2 0.4 111 -999
2007-06-14 07:19:09 51°13.607 2°56.058 115.7 0.9 113 -999
2007-06-14 07:19:13 51°13.606 2°56.06 118.9 1.3 115 -999
2007-06-14 07:19:17 51°13.605 2°56.062 122.2 1.4 119 -999
2007-06-14 07:19:22 51°13.604 2°56.065 124.6 1.6 119 5.2
2007-06-14 07:19:27 51°13.603 2°56.068 126.7 1.7 121 8.8
2007-06-14 07:19:32 51°13.601 2°56.072 128 1.8 123 8.6
2007-06-14 07:19:37 51°13.6 2°56.075 129.8 2 124 8.6
2007-06-14 07:19:42 51°13.598 2°56.079 130.8 2.1 125 8.4
2007-06-14 07:19:47 51°13.596 2°56.083 131.4 2.2 128 8.5
2007-06-14 07:19:52 51°13.594 2°56.087 132.1 2.3 130 8.5
2007-06-14 07:19:59 51°13.591 2°56.092 132.9 2.4 132 8.9
2007-06-14 07:20:02 51°13.59 2°56.095 133.8 2.5 132 8.9
2007-06-14 07:20:07 51°13.587 2°56.099 134.9 2.6 132 9.3
2007-06-14 07:20:12 51°13.585 2°56.103 135.7 2.8 134 9.4
2007-06-14 07:20:19 51°13.581 2°56.11 136.3 2.9 135 9.5
2007-06-14 07:20:23 51°13.579 2°56.114 136.6 3 135 9.5
2007-06-14 07:20:28 51°13.576 2°56.118 136.7 3.1 135 9.7
2007-06-14 07:20:33 51°13.573 2°56.124 136.7 3.2 135 9.8
2007-06-14 07:20:37 51°13.57 2°56.127 136.4 3.2 136 9.8
2007-06-14 07:20:43 51°13.566 2°56.134 136 3.3 135 9.9
2007-06-14 07:20:47 51°13.564 2°56.138 135.7 3.4 135 9.9
2007-06-14 07:20:52 51°13.561 2°56.143 135.4 3.4 134 10.2
2007-06-14 07:20:57 51°13.557 2°56.148 135.3 3.5 135 10.4
2007-06-14 07:21:02 51°13.554 2°56.154 135.3 3.6 134 10.6
2007-06-14 07:21:07 51°13.55 2°56.16 134.8 3.6 133 10.5
2007-06-14 07:21:12 51°13.547 2°56.166 133.7 3.7 131 10.6
2007-06-14 07:21:18 51°13.543 2°56.173 132.3 3.6 129 10.7
2007-06-14 07:21:22 51°13.54 2°56.178 130.8 3.7 128 10.7
2007-06-14 07:21:27 51°13.537 2°56.185 129.1 3.7 126 10.7
2007-06-14 07:21:32 51°13.535 2°56.192 127.4 3.7 124 10.8
2007-06-14 07:21:37 51°13.532 2°56.198 125.7 3.7 122 10.7
2007-06-14 07:21:42 51°13.529 2°56.205 124.1 3.7 121 10.9
2007-06-14 07:21:47 51°13.527 2°56.212 122.7 3.7 119 11.2
2007-06-14 07:21:52 51°13.524 2°56.22 121.5 3.6 116 11.1
2007-06-14 07:21:58 51°13.522 2°56.228 118.3 3.5 111 11
2007-06-14 07:22:02 51°13.521 2°56.234 114.4 3.4 108 10.7
2007-06-14 07:22:07 51°13.52 2°56.241 110.7 3.4 101 10.5
2007-06-14 07:22:12 51°13.52 2°56.249 105.8 3.3 97 10.5
2007-06-14 07:22:18 51°13.52 2°56.257 100.2 3.4 89 10.6
2007-06-14 07:22:22 51°13.52 2°56.263 94.6 3.3 85 10.5
2007-06-14 07:22:27 51°13.521 2°56.27 88.4 3.1 77 10.5
2007-06-14 07:22:32 51°13.522 2°56.276 82.2 3 74 10.4
2007-06-14 07:22:37 51°13.524 2°56.282 77.8 2.7 69 10.3
2007-06-14 07:22:42 51°13.525 2°56.287 75.1 2.4 70 10
2007-06-14 07:22:47 51°13.526 2°56.291 72.5 2 63 9.9
2007-06-14 07:22:52 51°13.527 2°56.294 68.8 1.5 63 9.6
2007-06-14 07:22:57 51°13.528 2°56.296 64.5 1.2 53 9
2007-06-14 07:23:02 51°13.529 2°56.298 60.3 0.8 54 9.4
2007-06-14 07:23:07 51°13.53 2°56.298 56.6 0.5 47 9.3
2007-06-14 07:23:12 51°13.53 2°56.299 53.8 0.1 56 9.2
2007-06-14 07:23:17 51°13.53 2°56.298 51.8 0.2 256 9.1
2007-06-14 07:23:22 51°13.529 2°56.298 50.1 0.4 234 9.3
2007-06-14 07:23:27 51°13.529 2°56.296 48.6 0.7 241 9.5
2007-06-14 07:23:32 51°13.528 2°56.295 47.1 0.9 232 9.6
2007-06-14 07:23:37 51°13.527 2°56.293 45.4 0.9 233 -999
2007-06-14 07:23:42 51°13.527 2°56.292 43.5 0.8 230 -999
2007-06-14 07:23:48 51°13.526 2°56.29 42 0.7 230 -999
2007-06-14 07:23:53 51°13.525 2°56.289 41.1 0.5 230 -999
2007-06-14 07:23:58 51°13.525 2°56.289 40.1 0.2 266 -999
2007-06-14 07:24:02 51°13.526 2°56.289 39 0.4 17 -999
2007-06-14 07:24:07 51°13.527 2°56.289 35.1 0.9 17 -999
2007-06-14 07:24:12 51°13.528 2°56.291 32.5 1.2 22 5.1
2007-06-14 07:24:18 51°13.53 2°56.291 28.3 1.3 13 5.1
2007-06-14 07:24:22 51°13.532 2°56.292 23 1.3 16 4.9
2007-06-14 07:24:27 51°13.534 2°56.293 19.1 1.3 8 5.2
2007-06-14 07:24:32 51°13.535 2°56.293 14.9 1.2 9 4.9
2007-06-14 07:24:38 51°13.537 2°56.293 11.4 1 1 4.9
2007-06-14 07:24:42 51°13.538 2°56.293 8.9 0.7 8 8.9
2007-06-14 07:24:47 51°13.539 2°56.293 6.3 0.4 352 8.8
2007-06-14 07:24:52 51°13.539 2°56.293 4 0.1 116 8.8
2007-06-14 07:24:58 51°13.538 2°56.293 1.2 0.6 183 8.9
2007-06-14 07:25:02 51°13.536 2°56.294 358.6 1 171 8.9
2007-06-14 07:25:07 51°13.535 2°56.294 356.7 1.2 176 4.8
2007-06-14 07:25:12 51°13.533 2°56.294 354.9 1.2 171 9
2007-06-14 07:25:17 51°13.531 2°56.294 353.4 1.3 174 5
2007-06-14 07:25:23 51°13.529 2°56.294 351.7 1.3 169 -999
2007-06-14 07:25:28 51°13.527 2°56.294 350.5 1.2 170 -999
2007-06-14 07:25:33 51°13.526 2°56.295 349.6 1.2 167 -999
2007-06-14 07:25:37 51°13.525 2°56.295 349.1 1.3 168 9.5
2007-06-14 07:25:42 51°13.522 2°56.296 349.1 1.6 166 -999
2007-06-14 07:25:47 51°13.52 2°56.297 349.1 1.8 167 -999
2007-06-14 07:25:53 51°13.517 2°56.298 348.9 2 166 5.3
2007-06-14 07:25:57 51°13.515 2°56.299 348.7 2.1 165 4.9
2007-06-14 07:26:02 51°13.512 2°56.3 348.4 2 165 -999
2007-06-14 07:26:07 51°13.509 2°56.301 348.3 1.9 166 -999
2007-06-14 07:26:13 51°13.507 2°56.302 348.3 1.4 167 -999
2007-06-14 07:26:18 51°13.505 2°56.303 347.4 1 161 -999
2007-06-14 07:26:22 51°13.505 2°56.303 345.3 0.8 175 -999
2007-06-14 07:26:27 51°13.504 2°56.304 342.7 0.5 164 -999
2007-06-14 07:26:33 51°13.504 2°56.303 339.7 0.3 231 -999
2007-06-14 07:26:38 51°13.505 2°56.303 336.8 0.6 327 -999
2007-06-14 07:26:42 51°13.506 2°56.301 332.8 1.2 314 10
2007-06-14 07:26:47 51°13.507 2°56.299 327.6 1.7 320 -999
2007-06-14 07:26:52 51°13.509 2°56.295 321.9 1.9 307 10.2
2007-06-14 07:26:58 51°13.511 2°56.291 315.3 2.1 311 4.7
2007-06-14 07:27:03 51°13.513 2°56.287 310.6 2.2 304 4.8
2007-06-14 07:27:07 51°13.514 2°56.283 307.3 2.4 303 10.5
2007-06-14 07:27:12 51°13.516 2°56.278 304.4 2.7 301 10.4
2007-06-14 07:27:17 51°13.518 2°56.273 302.6 2.8 301 10.5
2007-06-14 07:27:22 51°13.52 2°56.267 301.5 2.9 301 10.4
2007-06-14 07:27:27 51°13.522 2°56.261 300.9 3.1 300 10.6
2007-06-14 07:27:32 51°13.524 2°56.255 300.4 3.3 298 10.4
2007-06-14 07:27:37 51°13.526 2°56.248 299.9 3.4 298 10.3
2007-06-14 07:27:42 51°13.529 2°56.241 299.4 3.5 298 10.4
2007-06-14 07:27:47 51°13.531 2°56.234 298.9 3.6 298 10.3
2007-06-14 07:27:52 51°13.533 2°56.227 298.8 3.7 298 10.4
2007-06-14 07:27:57 51°13.536 2°56.219 298.8 3.8 299 10.2
2007-06-14 07:28:02 51°13.539 2°56.212 299.1 3.9 298 10
2007-06-14 07:28:07 51°13.541 2°56.204 299.7 4 298 9.8
2007-06-14 07:28:12 51°13.544 2°56.196 299.8 4.1 297 9.9
2007-06-14 07:28:17 51°13.547 2°56.188 299.7 4.2 297 9.9
2007-06-14 07:28:22 51°13.55 2°56.18 299.6 4.3 297 9.8
2007-06-14 07:28:27 51°13.552 2°56.171 299.5 4.4 297 9.7
2007-06-14 07:28:32 51°13.555 2°56.162 299.3 4.5 296 9.7
2007-06-14 07:28:39 51°13.559 2°56.15 299.2 4.5 296 9.4
2007-06-14 07:28:43 51°13.561 2°56.143 299.1 4.6 296 9.5
2007-06-14 07:28:47 51°13.563 2°56.135 299.5 4.6 297 9.7
2007-06-14 07:28:52 51°13.566 2°56.127 300.5 4.5 299 9.9
2007-06-14 07:28:58 51°13.57 2°56.116 301.4 4.4 299 10.1
2007-06-14 07:29:02 51°13.572 2°56.11 301.8 4.3 300 10.3
2007-06-14 07:29:07 51°13.575 2°56.102 302.3 4.2 300 -999
2007-06-14 07:29:12 51°13.578 2°56.094 302.7 4.1 301 10.5
2007-06-14 07:29:18 51°13.582 2°56.085 303.1 4 301 10.5
2007-06-14 07:29:22 51°13.584 2°56.079 303.4 4 302 10.4
2007-06-14 07:29:27 51°13.587 2°56.071 304.1 4 302 10.6
2007-06-14 07:29:32 51°13.59 2°56.063 304.6 4.3 303 10.6
2007-06-14 07:29:38 51°13.595 2°56.053 304.9 4.5 303 10.6
2007-06-14 07:29:42 51°13.597 2°56.046 304.9 4.7 304 10.6
2007-06-14 07:29:47 51°13.601 2°56.037 305 4.9 303 10.5
2007-06-14 07:29:52 51°13.605 2°56.027 305.4 5.1 303 10.6
2007-06-14 07:29:57 51°13.609 2°56.017 305.5 5.3 302 10.6
2007-06-14 07:30:02 51°13.613 2°56.007 305.4 5.4 302 10.6
2007-06-14 07:30:07 51°13.617 2°55.997 304.9 5.6 302 10.6
2007-06-14 07:30:12 51°13.621 2°55.986 304.8 5.7 303 10.6
2007-06-14 07:30:17 51°13.626 2°55.976 305.4 5.9 305 10.6
2007-06-14 07:30:22 51°13.631 2°55.965 306.3 5.9 305 10.5
2007-06-14 07:30:27 51°13.635 2°55.954 307 6 305 10.5
2007-06-14 07:30:32 51°13.64 2°55.943 307.3 6.2 304 10.4
2007-06-14 07:30:38 51°13.646 2°55.929 307 6.3 304 10.3
2007-06-14 07:30:42 51°13.65 2°55.92 306.7 6.3 304 10.5
2007-06-14 07:30:47 51°13.655 2°55.908 306.5 6.4 304 10.4
2007-06-14 07:30:52 51°13.66 2°55.896 306.5 6.5 304 10.4
2007-06-14 07:30:58 51°13.666 2°55.881 306.6 6.5 304 10.3
2007-06-14 07:31:02 51°13.671 2°55.872 306.8 6.6 304 10.3
2007-06-14 07:31:07 51°13.676 2°55.86 307.2 6.7 305 10.3
2007-06-14 07:31:12 51°13.681 2°55.848 308 6.7 306 10.2
2007-06-14 07:31:18 51°13.688 2°55.834 309.1 6.8 308 10.2
2007-06-14 07:31:22 51°13.693 2°55.824 310.2 6.8 308 10.4
2007-06-14 07:31:27 51°13.699 2°55.812 310.9 6.8 309 10.5
2007-06-14 07:31:32 51°13.705 2°55.801 311.4 6.9 309 10.5
2007-06-14 07:31:39 51°13.714 2°55.785 312.1 6.9 311 10.9
2007-06-14 07:31:42 51°13.718 2°55.778 313 7 311 11.2
2007-06-14 07:31:47 51°13.724 2°55.766 314.2 7.2 313 11.4
2007-06-14 07:31:52 51°13.731 2°55.754 315.7 7.4 314 11.4
2007-06-14 07:31:57 51°13.739 2°55.742 316.6 7.5 315 11.1
2007-06-14 07:32:02 51°13.746 2°55.731 318 7.6 317 11.2
2007-06-14 07:32:07 51°13.754 2°55.719 319.6 7.7 317 10.7
2007-06-14 07:32:12 51°13.762 2°55.708 320.7 7.8 318 10.5
2007-06-14 07:32:17 51°13.77 2°55.696 321.4 7.9 319 10.3
2007-06-14 07:32:22 51°13.779 2°55.685 322.2 7.9 321 10.5
2007-06-14 07:32:27 51°13.788 2°55.675 323.9 8 325 10.6
2007-06-14 07:32:32 51°13.797 2°55.665 326.2 8.1 328 10.7
2007-06-14 07:32:37 51°13.807 2°55.656 328.9 6.6 329 10.7
2007-06-14 07:32:43 51°13.819 2°55.646 330.9 7.2 331 10.7
2007-06-14 07:32:47 51°13.827 2°55.639 332.8 8.2 332 10.8
2007-06-14 07:32:52 51°13.837 2°55.631 334.5 8.2 335 10.7
2007-06-14 07:32:58 51°13.849 2°55.622 335.7 8.2 334 10.6
2007-06-14 07:33:02 51°13.857 2°55.615 336.9 8.3 335 10.6
2007-06-14 07:33:07 51°13.868 2°55.607 337.5 8.3 334 10.5
2007-06-14 07:33:12 51°13.878 2°55.6 337.5 8.3 335 10.5
2007-06-14 07:33:18 51°13.891 2°55.59 337.8 8.3 335 10.7
2007-06-14 07:33:22 51°13.899 2°55.584 338.3 8.4 336 10.6
2007-06-14 07:33:27 51°13.91 2°55.577 338.6 8.3 335 10.6
2007-06-14 07:33:32 51°13.92 2°55.569 338.6 8.4 335 10.8
2007-06-14 07:33:38 51°13.933 2°55.559 338.3 8.4 335 10.6
2007-06-14 07:33:42 51°13.941 2°55.553 338.4 8.4 336 10.6
2007-06-14 07:33:47 51°13.952 2°55.546 338.9 8.4 336 10.6
2007-06-14 07:33:53 51°13.964 2°55.537 339.1 8.4 336 10.6
2007-06-14 07:33:58 51°13.975 2°55.529 339.2 8.3 336 10.6
2007-06-14 07:34:02 51°13.983 2°55.523 339 8.3 336 10.6
2007-06-14 07:34:07 51°13.994 2°55.516 338.7 8.3 336 10.6
2007-06-14 07:34:12 51°14.004 2°55.509 338.9 8.3 337 10.7
2007-06-14 07:34:17 51°14.015 2°55.501 339.8 8.3 337 10.7
2007-06-14 07:34:22 51°14.026 2°55.494 339.8 8.3 337 10.6
2007-06-14 07:34:27 51°14.037 2°55.487 339.8 8.5 337 10.7
2007-06-14 07:34:32 51°14.048 2°55.479 339.8 8.9 337 10.6
2007-06-14 07:34:37 51°14.059 2°55.471 339.8 9.1 336 10.6
2007-06-14 07:34:42 51°14.071 2°55.463 339.7 9.3 336 10.7
2007-06-14 07:34:47 51°14.083 2°55.454 339.6 9.6 336 10.6
2007-06-14 07:34:52 51°14.095 2°55.446 339.4 9.7 335 10.6
2007-06-14 07:34:57 51°14.108 2°55.436 338.6 9.8 335 10.6
2007-06-14 07:35:02 51°14.12 2°55.427 338.2 9.9 334 10.7
2007-06-14 07:35:07 51°14.133 2°55.417 337.5 10 333 -999
2007-06-14 07:35:12 51°14.145 2°55.407 336.7 10.1 332 10.7
2007-06-14 07:35:18 51°14.16 2°55.394 335.8 10.2 331 10.7
2007-06-14 07:35:22 51°14.169 2°55.385 334.8 10.2 330 10.7
2007-06-14 07:35:27 51°14.182 2°55.373 334 10.2 329 10.7
2007-06-14 07:35:32 51°14.194 2°55.361 332.5 10.2 327 10.7
2007-06-14 07:35:38 51°14.207 2°55.345 330.2 10.3 324 10.8
2007-06-14 07:35:42 51°14.217 2°55.334 328.4 10.3 324 10.7
2007-06-14 07:35:47 51°14.228 2°55.32 327.3 10.3 322 10.7
2007-06-14 07:35:52 51°14.239 2°55.306 326 10.3 320 10.8
2007-06-14 07:35:58 51°14.252 2°55.287 323.7 10.3 318 10.7
2007-06-14 07:36:02 51°14.26 2°55.275 321.8 10.3 317 10.8
2007-06-14 07:36:07 51°14.27 2°55.259 320.3 10.3 315 10.7
2007-06-14 07:36:12 51°14.28 2°55.242 318.2 10.3 313 10.7
2007-06-14 07:36:17 51°14.29 2°55.225 316.4 10.4 312 10.7
2007-06-14 07:36:22 51°14.299 2°55.208 315 10.5 311 10.7
2007-06-14 07:36:27 51°14.309 2°55.19 313.9 10.7 310 10.8
2007-06-14 07:36:32 51°14.319 2°55.172 313.2 10.9 311 10.8
2007-06-14 07:36:37 51°14.329 2°55.153 313.4 11.2 312 10.5
2007-06-14 07:36:43 51°14.341 2°55.131 314.5 11.5 311 10.4
2007-06-14 07:36:47 51°14.35 2°55.115 314.4 11.6 310 10.6
2007-06-14 07:36:52 51°14.361 2°55.095 314.2 11.8 310 10.3
2007-06-14 07:36:57 51°14.371 2°55.075 313.7 12 309 10.2
2007-06-14 07:37:02 51°14.382 2°55.054 313.1 12 310 10.4
2007-06-14 07:37:07 51°14.393 2°55.034 313 12.2 310 10.4
2007-06-14 07:37:12 51°14.404 2°55.013 312.9 12.4 311 10.5
2007-06-14 07:37:17 51°14.416 2°54.993 313 12.5 315 10.1
2007-06-14 07:37:23 51°14.432 2°54.971 316.5 12.6 318 10
2007-06-14 07:37:27 51°14.443 2°54.957 320.8 12.7 321 10
2007-06-14 07:37:32 51°14.457 2°54.941 325.2 12.8 325 10.1
2007-06-14 07:37:37 51°14.472 2°54.925 328 12.8 328 9.5
2007-06-14 07:37:43 51°14.491 2°54.908 331.5 12.8 330 9.2
2007-06-14 07:37:48 51°14.506 2°54.895 334.3 12.8 332 9.1
2007-06-14 07:37:53 51°14.522 2°54.882 336.4 12.8 333 9.1
2007-06-14 07:37:58 51°14.538 2°54.87 338.4 12.8 334 9
2007-06-14 07:38:02 51°14.551 2°54.861 340 12.8 335 9
2007-06-14 07:38:07 51°14.567 2°54.849 341.6 12.8 337 8.8
2007-06-14 07:38:12 51°14.584 2°54.839 343.3 12.8 339 8.8
2007-06-14 07:38:18 51°14.604 2°54.828 345.4 12.7 341 8.8
2007-06-14 07:38:22 51°14.617 2°54.821 346.9 12.8 341 8.8
2007-06-14 07:38:27 51°14.634 2°54.812 347.9 12.7 342 8.6
2007-06-14 07:38:32 51°14.651 2°54.804 348.6 12.8 343 8.7
2007-06-14 07:38:38 51°14.671 2°54.795 349.5 12.7 345 8.6
2007-06-14 07:38:42 51°14.685 2°54.79 351.1 12.7 348 8.6
2007-06-14 07:38:47 51°14.702 2°54.785 353.3 12.7 350 8.8
2007-06-14 07:38:52 51°14.72 2°54.781 355.9 12.7 353 8.8
2007-06-14 07:38:57 51°14.737 2°54.778 358.2 12.7 354 8.9
2007-06-14 07:39:02 51°14.755 2°54.777 0.1 12.6 356 8.9
2007-06-14 07:39:07 51°14.772 2°54.776 2.3 12.6 359 8.8
2007-06-14 07:39:12 51°14.79 2°54.777 4.8 12.5 2 8.7
2007-06-14 07:39:17 51°14.807 2°54.779 7.2 12.5 5 8.9
2007-06-14 07:39:22 51°14.824 2°54.783 10.1 12.5 8 8.6
2007-06-14 07:39:27 51°14.841 2°54.787 12.8 12.5 10 8.7
2007-06-14 07:39:32 51°14.858 2°54.793 14.8 12.4 12 8.7
2007-06-14 07:39:37 51°14.875 2°54.799 16.6 12.4 14 8.6
2007-06-14 07:39:43 51°14.895 2°54.807 18.3 12.4 15 8.5
2007-06-14 07:39:47 51°14.908 2°54.813 20.2 12.3 16 8.4
2007-06-14 07:39:53 51°14.928 2°54.822 21.3 12.4 16 8.4
2007-06-14 07:39:58 51°14.944 2°54.83 21.7 12.3 16 8.4
2007-06-14 07:40:02 51°14.957 2°54.836 21.7 12.3 16 8.4
2007-06-14 07:40:07 51°14.974 2°54.843 21.7 12.3 15 8.4
2007-06-14 07:40:12 51°14.991 2°54.85 21.5 12.3 14 8.2
2007-06-14 07:40:18 51°15.01 2°54.858 20.6 12.3 14 8.4
2007-06-14 07:40:22 51°15.024 2°54.863 19.5 12.3 13 8.1
2007-06-14 07:40:27 51°15.041 2°54.868 18.8 12.3 12 8.2
2007-06-14 07:40:32 51°15.057 2°54.874 18.1 12.3 12 8
2007-06-14 07:40:38 51°15.077 2°54.881 17.5 12.3 12 8.1
2007-06-14 07:40:43 51°15.094 2°54.886 17.5 12.3 12 7.8
2007-06-14 07:40:47 51°15.107 2°54.891 17.4 12.2 12 7.9
2007-06-14 07:40:52 51°15.124 2°54.897 17.6 12.2 13 7.9
2007-06-14 07:40:57 51°15.14 2°54.903 18.2 12.2 14 7.7
2007-06-14 07:41:02 51°15.156 2°54.91 19.4 12.1 15 7.6
2007-06-14 07:41:07 51°15.172 2°54.918 20.3 12.1 16 7.5
2007-06-14 07:41:12 51°15.188 2°54.926 21.2 12 18 7.6
2007-06-14 07:41:17 51°15.204 2°54.933 22.3 12 18 7.4
2007-06-14 07:41:22 51°15.22 2°54.942 23.1 12 18 7.4
2007-06-14 07:41:27 51°15.236 2°54.95 23.7 12 18 7.5
2007-06-14 07:41:32 51°15.251 2°54.959 23.9 12 18 7.5
2007-06-14 07:41:37 51°15.267 2°54.967 24.1 12 18 7.4
2007-06-14 07:41:43 51°15.286 2°54.977 23.9 12 18 7.5
2007-06-14 07:41:47 51°15.299 2°54.983 23.5 12.1 17 7.5
2007-06-14 07:41:53 51°15.318 2°54.991 22.9 12.1 16 7.5
2007-06-14 07:41:57 51°15.331 2°54.997 22.1 12.1 15 7.6
2007-06-14 07:42:02 51°15.348 2°55.004 21.6 12.1 13 7.6
2007-06-14 07:42:07 51°15.364 2°55.009 20.1 12.1 12 7.7
2007-06-14 07:42:13 51°15.384 2°55.015 18.2 12.2 11 7.7
2007-06-14 07:42:18 51°15.401 2°55.02 17.3 12.2 10 7.9
2007-06-14 07:42:22 51°15.414 2°55.023 16.4 12.2 10 7.9
2007-06-14 07:42:27 51°15.431 2°55.028 15.8 12.3 9 8
2007-06-14 07:42:32 51°15.448 2°55.032 15.5 12.3 10 8
2007-06-14 07:42:38 51°15.468 2°55.039 15.9 12.4 11 8
2007-06-14 07:42:42 51°15.481 2°55.043 16.6 12.4 12 8.2
2007-06-14 07:42:47 51°15.498 2°55.05 17.4 12.4 14 8.1
2007-06-14 07:42:52 51°15.515 2°55.057 18.7 12.4 15 8.2
2007-06-14 07:42:58 51°15.535 2°55.066 19.7 12.4 16 8.3
2007-06-14 07:43:02 51°15.548 2°55.073 20.6 12.4 19 8.3
2007-06-14 07:43:07 51°15.564 2°55.084 23.3 12.4 24 8.4
2007-06-14 07:43:12 51°15.579 2°55.096 26.8 12.4 26 8.4
2007-06-14 07:43:17 51°15.594 2°55.109 29.5 12.4 29 8.4
2007-06-14 07:43:22 51°15.609 2°55.122 31.9 12.4 29 8.5
2007-06-14 07:43:27 51°15.624 2°55.137 33.4 12.4 31 8.6
2007-06-14 07:43:32 51°15.638 2°55.151 34.8 12.4 33 8.6
2007-06-14 07:43:37 51°15.653 2°55.166 35.7 12.4 34 8.7
2007-06-14 07:43:42 51°15.666 2°55.183 37.4 12.3 39 8.7
2007-06-14 07:43:47 51°15.679 2°55.202 41.1 12.3 42 8.8
2007-06-14 07:43:52 51°15.691 2°55.221 44.6 12.3 46 8.7
2007-06-14 07:43:57 51°15.703 2°55.241 47.3 12.3 47 8.8
2007-06-14 07:44:02 51°15.714 2°55.261 49.4 12.3 49 8.8
2007-06-14 07:44:07 51°15.725 2°55.281 51.3 12.2 49 8.9
2007-06-14 07:44:12 51°15.735 2°55.303 52.2 12.3 51 8.8
2007-06-14 07:44:17 51°15.746 2°55.324 53.3 12.3 51 8.8
2007-06-14 07:44:22 51°15.757 2°55.345 53.6 12.3 52 8.8
2007-06-14 07:44:27 51°15.767 2°55.367 54.5 12.3 53 8.8
2007-06-14 07:44:32 51°15.777 2°55.389 55.2 12.3 56 8.7
2007-06-14 07:44:38 51°15.789 2°55.416 56.7 12.3 54 8.8
2007-06-14 07:44:42 51°15.797 2°55.434 57.2 12.2 56 8.8
2007-06-14 07:44:47 51°15.806 2°55.456 57.8 12.3 55 8.8
2007-06-14 07:44:52 51°15.816 2°55.478 58 12.2 57 8.9
2007-06-14 07:44:58 51°15.827 2°55.505 58.1 12.3 55 8.8
2007-06-14 07:45:03 51°15.837 2°55.527 58.4 12.3 55 8.9
2007-06-14 07:45:07 51°15.845 2°55.545 57.8 12.3 55 8.8
2007-06-14 07:45:12 51°15.855 2°55.567 57.4 12.2 53 8.8
2007-06-14 07:45:18 51°15.867 2°55.593 56.7 12.3 54 8.8
2007-06-14 07:45:22 51°15.876 2°55.61 56.4 12.3 52 8.8
2007-06-14 07:45:27 51°15.885 2°55.632 55.3 12.2 54 8.8
2007-06-14 07:45:32 51°15.896 2°55.654 55.9 12.3 53 8.8
2007-06-14 07:45:38 51°15.908 2°55.68 56.2 12.3 54 8.8
2007-06-14 07:45:42 51°15.916 2°55.698 56.4 12.3 55 8.9
2007-06-14 07:45:47 51°15.926 2°55.72 57.1 12.3 55 8.8
2007-06-14 07:45:52 51°15.935 2°55.743 57.3 12.3 55 8.9
2007-06-14 07:45:57 51°15.945 2°55.765 57.5 12.3 56 9
2007-06-14 07:46:02 51°15.954 2°55.787 57.8 12.3 56 9
2007-06-14 07:46:07 51°15.964 2°55.81 58.4 12.3 56 8.9
2007-06-14 07:46:12 51°15.973 2°55.833 58.9 12.3 57 8.9
2007-06-14 07:46:17 51°15.983 2°55.855 59.1 12.2 56 8.9
2007-06-14 07:46:22 51°15.992 2°55.878 59 12.2 56 8.9
2007-06-14 07:46:27 51°16.002 2°55.9 59 12.3 55 8.9
2007-06-14 07:46:32 51°16.011 2°55.923 58.5 12.3 56 9
2007-06-14 07:46:38 51°16.023 2°55.949 58.2 12.2 55 9
2007-06-14 07:46:42 51°16.031 2°55.967 58 12.2 55 8.8
2007-06-14 07:46:47 51°16.041 2°55.989 57.8 12.3 54 9
2007-06-14 07:46:52 51°16.05 2°56.011 57.9 12.2 55 8.9
2007-06-14 07:46:58 51°16.062 2°56.037 57.7 12.2 54 9
2007-06-14 07:47:02 51°16.07 2°56.055 57.9 12.2 55 9
2007-06-14 07:47:07 51°16.08 2°56.077 58 12.2 55 9
2007-06-14 07:47:13 51°16.091 2°56.104 58 12.3 55 8.9
2007-06-14 07:47:18 51°16.101 2°56.127 58 12.2 56 9
2007-06-14 07:47:22 51°16.108 2°56.144 58.1 12.2 55 9
2007-06-14 07:47:27 51°16.118 2°56.167 58.3 12.2 56 9
2007-06-14 07:47:32 51°16.128 2°56.189 58.6 12.3 56 9
2007-06-14 07:47:38 51°16.139 2°56.216 58.8 12.3 56 8.9
2007-06-14 07:47:42 51°16.147 2°56.234 58.7 12.2 56 8.9
2007-06-14 07:47:47 51°16.156 2°56.256 58.7 12.2 56 8.9
2007-06-14 07:47:52 51°16.166 2°56.278 58.7 12.2 55 8.9
2007-06-14 07:47:57 51°16.176 2°56.3 58.5 12.2 54 8.9
2007-06-14 07:48:02 51°16.185 2°56.322 57.8 12.2 55 9
2007-06-14 07:48:07 51°16.195 2°56.344 57.8 12.3 55 8.9
2007-06-14 07:48:12 51°16.205 2°56.367 57.9 12.3 54 8.9
2007-06-14 07:48:17 51°16.215 2°56.388 57.6 12.2 55 8.9
2007-06-14 07:48:22 51°16.224 2°56.411 57.6 12.2 55 9
2007-06-14 07:48:27 51°16.234 2°56.433 58.2 12.3 55 8.9
2007-06-14 07:48:32 51°16.244 2°56.455 58.2 12.2 56 8.9
2007-06-14 07:48:37 51°16.254 2°56.477 58.1 12.2 55 9
2007-06-14 07:48:42 51°16.263 2°56.499 58 12.2 55 9
2007-06-14 07:48:47 51°16.273 2°56.521 58.1 12.3 54 9
2007-06-14 07:48:52 51°16.283 2°56.544 57.7 12.2 55 9
2007-06-14 07:48:58 51°16.295 2°56.57 57.7 12.2 55 9.1
2007-06-14 07:49:02 51°16.302 2°56.588 57.8 12.2 54 9
2007-06-14 07:49:07 51°16.312 2°56.61 57.8 12.2 54 9
2007-06-14 07:49:12 51°16.322 2°56.632 57.6 12.2 54 9
2007-06-14 07:49:17 51°16.332 2°56.653 57.4 12.2 53 9.1
2007-06-14 07:49:22 51°16.342 2°56.675 57 12.2 54 9.1
2007-06-14 07:49:27 51°16.353 2°56.697 56.6 12.2 54 9.1
2007-06-14 07:49:32 51°16.362 2°56.719 56.6 12.3 54 9
2007-06-14 07:49:38 51°16.375 2°56.745 57 12.3 54 9
2007-06-14 07:49:42 51°16.383 2°56.763 57 12.2 54 9
2007-06-14 07:49:47 51°16.392 2°56.784 57.1 12.2 55 9.1
2007-06-14 07:49:52 51°16.402 2°56.806 57.7 12.2 55 9.3
2007-06-14 07:49:58 51°16.414 2°56.833 58 12.2 56 9.3
2007-06-14 07:50:02 51°16.422 2°56.851 58.2 12.2 55 9.2
2007-06-14 07:50:07 51°16.431 2°56.873 58.2 12.2 55 9.2
2007-06-14 07:50:12 51°16.441 2°56.895 58 12.2 54 9.4
2007-06-14 07:50:17 51°16.451 2°56.916 57.6 12.2 54 9.3
2007-06-14 07:50:22 51°16.461 2°56.938 57.3 12.2 54 9.2
2007-06-14 07:50:27 51°16.471 2°56.96 57.1 12.2 54 9.2
2007-06-14 07:50:32 51°16.481 2°56.982 56.8 12.2 53 9.3
2007-06-14 07:50:37 51°16.491 2°57.003 56.6 12.1 53 9.2
2007-06-14 07:50:42 51°16.501 2°57.025 56.6 12.1 54 9.1
2007-06-14 07:50:47 51°16.512 2°57.047 57.2 12.2 53 9.2
2007-06-14 07:50:52 51°16.521 2°57.068 56.9 12.2 54 9.2
2007-06-14 07:50:58 51°16.533 2°57.095 56.8 12.2 54 9.2
2007-06-14 07:51:02 51°16.541 2°57.112 57 12.1 54 9.2
2007-06-14 07:51:07 51°16.551 2°57.134 57 12.2 55 9.1
2007-06-14 07:51:12 51°16.561 2°57.156 57.5 12.2 54 9.1
2007-06-14 07:51:17 51°16.571 2°57.178 57.7 12.2 55 9.2
2007-06-14 07:51:22 51°16.581 2°57.2 57.6 12.2 54 9.2
2007-06-14 07:51:27 51°16.59 2°57.222 58 12.2 56 9.1
2007-06-14 07:51:33 51°16.602 2°57.248 58.3 12.2 53 9.1
2007-06-14 07:51:38 51°16.611 2°57.271 57.8 12.2 57 9.2
2007-06-14 07:51:42 51°16.62 2°57.288 58.3 12.2 53 9.2
2007-06-14 07:51:47 51°16.629 2°57.311 57.9 12.3 56 9.1
2007-06-14 07:51:52 51°16.639 2°57.332 58.1 12.2 53 9.1
2007-06-14 07:51:58 51°16.65 2°57.359 57.4 12.2 55 9.2
2007-06-14 07:52:02 51°16.659 2°57.376 58 12.2 54 9.2
2007-06-14 07:52:07 51°16.668 2°57.399 57.8 12.3 56 9.2
2007-06-14 07:52:12 51°16.678 2°57.42 57.9 12.2 54 9.3
2007-06-14 07:52:19 51°16.692 2°57.451 57.3 12.2 54 9.2
2007-06-14 07:52:23 51°16.7 2°57.468 57.3 12.2 54 9.2
2007-06-14 07:52:27 51°16.708 2°57.486 56.9 12.2 55 9.2
2007-06-14 07:52:32 51°16.718 2°57.508 57 12.2 54 9.2
2007-06-14 07:52:37 51°16.728 2°57.53 57.2 12.2 54 9.2
2007-06-14 07:52:42 51°16.738 2°57.551 57.1 12.2 54 9.1
2007-06-14 07:52:47 51°16.748 2°57.573 57.2 12.2 54 9.2
2007-06-14 07:52:52 51°16.758 2°57.595 57.2 12.2 54 9.2
2007-06-14 07:52:57 51°16.768 2°57.617 57.4 12.2 54 9.2
2007-06-14 07:53:02 51°16.778 2°57.639 57.1 12.2 55 9.2
2007-06-14 07:53:07 51°16.788 2°57.661 57.6 12.2 54 9.3
2007-06-14 07:53:12 51°16.798 2°57.683 57.3 12.2 54 9.2
2007-06-14 07:53:17 51°16.808 2°57.704 57.3 12.2 54 9.2
2007-06-14 07:53:22 51°16.818 2°57.726 57.1 12.2 55 9.2
2007-06-14 07:53:27 51°16.827 2°57.748 57.3 12.2 53 9.1
2007-06-14 07:53:33 51°16.839 2°57.775 57.3 12.2 56 9.1
2007-06-14 07:53:38 51°16.849 2°57.797 57.9 12.2 54 9.1
2007-06-14 07:53:42 51°16.857 2°57.815 58 12.2 55 9.1
2007-06-14 07:53:47 51°16.866 2°57.837 58.2 12.2 57 9.1
2007-06-14 07:53:53 51°16.877 2°57.864 59.3 12.3 57 9
2007-06-14 07:53:58 51°16.887 2°57.887 59.4 12.2 56 8.9
2007-06-14 07:54:02 51°16.894 2°57.905 59.5 12.1 56 9
2007-06-14 07:54:07 51°16.903 2°57.927 59.3 12.1 57 9
2007-06-14 07:54:12 51°16.913 2°57.949 59.5 12.2 55 9
2007-06-14 07:54:18 51°16.925 2°57.976 58.7 12.2 55 8.9
2007-06-14 07:54:22 51°16.932 2°57.993 58.6 12.2 55 8.9
2007-06-14 07:54:27 51°16.942 2°58.015 58 12.2 55 8.9
2007-06-14 07:54:32 51°16.952 2°58.037 57.9 12.3 53 8.9
2007-06-14 07:54:37 51°16.962 2°58.059 57.3 12.1 54 8.9
2007-06-14 07:54:42 51°16.972 2°58.081 56.9 12.2 55 8.9
2007-06-14 07:54:47 51°16.982 2°58.103 57.5 12.3 54 8.9
2007-06-14 07:54:52 51°16.992 2°58.125 57.5 12.3 55 8.9
2007-06-14 07:54:57 51°17.002 2°58.147 57.8 12.2 55 9
2007-06-14 07:55:02 51°17.011 2°58.17 58.1 12.3 57 8.9
2007-06-14 07:55:07 51°17.021 2°58.192 59 12.3 54 8.9
2007-06-14 07:55:12 51°17.03 2°58.215 58.4 12.2 56 8.9
2007-06-14 07:55:17 51°17.04 2°58.237 58.6 12.3 56 8.9
2007-06-14 07:55:22 51°17.05 2°58.259 59.2 12.3 55 9
2007-06-14 07:55:27 51°17.059 2°58.282 58.5 12.2 56 9
2007-06-14 07:55:32 51°17.069 2°58.304 58.9 12.2 56 9
2007-06-14 07:55:37 51°17.078 2°58.327 58.9 12.3 56 9
2007-06-14 07:55:42 51°17.088 2°58.349 58.9 12.3 55 8.9
2007-06-14 07:55:47 51°17.098 2°58.371 58.6 12.2 55 8.9
2007-06-14 07:55:53 51°17.109 2°58.398 58 12.2 56 9
2007-06-14 07:55:58 51°17.119 2°58.42 58.2 12.3 54 8.8
2007-06-14 07:56:02 51°17.127 2°58.438 58 12.2 56 8.8
2007-06-14 07:56:07 51°17.136 2°58.461 58.7 12.2 57 8.7
2007-06-14 07:56:12 51°17.145 2°58.484 59.6 12.2 59 8.7
2007-06-14 07:56:18 51°17.155 2°58.512 60.8 12.2 59 8.6
2007-06-14 07:56:22 51°17.162 2°58.53 61.6 12.2 60 8.7
2007-06-14 07:56:27 51°17.17 2°58.554 61.6 12.2 60 8.7
2007-06-14 07:56:32 51°17.179 2°58.577 62.3 12.1 61 8.6
2007-06-14 07:56:37 51°17.187 2°58.601 62.8 12.3 60 8.6
2007-06-14 07:56:42 51°17.196 2°58.624 62.9 12.3 60 8.6
2007-06-14 07:56:47 51°17.204 2°58.647 62.4 12.2 59 8.6
2007-06-14 07:56:52 51°17.213 2°58.671 62.3 12.2 60 8.6
2007-06-14 07:56:57 51°17.222 2°58.694 62.4 12.2 59 8.5
2007-06-14 07:57:02 51°17.23 2°58.717 61.8 12.2 60 8.5
2007-06-14 07:57:07 51°17.239 2°58.74 61.9 12.3 59 8.5
2007-06-14 07:57:12 51°17.248 2°58.764 62.1 12.3 59 8.6
2007-06-14 07:57:17 51°17.257 2°58.787 61.6 12.2 59 8.6
2007-06-14 07:57:22 51°17.265 2°58.81 61.6 12.3 59 8.5
2007-06-14 07:57:27 51°17.274 2°58.833 61.6 12.2 59 8.5
2007-06-14 07:57:32 51°17.283 2°58.857 61.3 12.2 59 8.5
2007-06-14 07:57:37 51°17.292 2°58.88 62 12.3 58 8.5
2007-06-14 07:57:42 51°17.3 2°58.904 61.6 12.2 60 8.5
2007-06-14 07:57:47 51°17.309 2°58.926 61.6 12.3 59 8.5
2007-06-14 07:57:53 51°17.32 2°58.954 61.6 12.3 57 8.5
2007-06-14 07:57:58 51°17.329 2°58.977 60.9 12.3 58 8.5
2007-06-14 07:58:02 51°17.336 2°58.995 60.8 12.3 58 8.5
2007-06-14 07:58:07 51°17.345 2°59.018 60.5 12.3 58 8.5
2007-06-14 07:58:13 51°17.356 2°59.046 60.7 12.2 59 8.4
2007-06-14 07:58:18 51°17.365 2°59.069 60.9 12.3 59 8.5
2007-06-14 07:58:22 51°17.372 2°59.088 61.2 12.2 59 8.5
2007-06-14 07:58:27 51°17.38 2°59.111 61.6 12.2 60 8.4
2007-06-14 07:58:32 51°17.389 2°59.135 62.2 12.2 60 8.4
2007-06-14 07:58:38 51°17.399 2°59.163 62.3 12.3 61 8.4
2007-06-14 07:58:43 51°17.408 2°59.186 62.4 12.2 59 8.4
2007-06-14 07:58:47 51°17.414 2°59.205 62.5 12.2 61 8.4
2007-06-14 07:58:52 51°17.423 2°59.228 62.6 12.3 59 8.3
2007-06-14 07:58:58 51°17.434 2°59.256 62.4 12.2 59 8.4
2007-06-14 07:59:03 51°17.442 2°59.279 61.9 12.2 59 8.4
2007-06-14 07:59:07 51°17.449 2°59.297 61.7 12.3 59 8.4
2007-06-14 07:59:12 51°17.458 2°59.321 61.4 12.2 58 8.4
2007-06-14 07:59:17 51°17.467 2°59.344 61.2 12.3 59 8.5
2007-06-14 07:59:23 51°17.478 2°59.371 61.3 12.3 59 8.4
2007-06-14 07:59:27 51°17.485 2°59.39 61.3 12.3 58 8.5
2007-06-14 07:59:32 51°17.494 2°59.413 60.9 12.3 59 8.4
2007-06-14 07:59:37 51°17.503 2°59.436 61.2 12.3 58 8.5
2007-06-14 07:59:43 51°17.514 2°59.464 60.9 12.3 58 8.4
2007-06-14 07:59:47 51°17.521 2°59.483 60.9 12.3 58 8.4
2007-06-14 07:59:52 51°17.53 2°59.505 61.2 12.2 58 8.4
2007-06-14 07:59:57 51°17.539 2°59.529 60.8 12.2 58 8.4
2007-06-14 08:00:02 51°17.548 2°59.552 61 12.3 58 8.4
2007-06-14 08:00:07 51°17.557 2°59.575 61 12.3 58 8.4
2007-06-14 08:00:13 51°17.568 2°59.603 61.1 12.3 58 8.5
2007-06-14 08:00:18 51°17.577 2°59.626 60.8 12.3 58 8.4
2007-06-14 08:00:22 51°17.584 2°59.644 60.7 12.3 58 8.3
2007-06-14 08:00:27 51°17.593 2°59.667 60.8 12.3 57 8.4
2007-06-14 08:00:32 51°17.602 2°59.69 60.3 12.3 58 8.3
2007-06-14 08:00:38 51°17.613 2°59.717 60.2 12.3 58 8.3
2007-06-14 08:00:42 51°17.62 2°59.736 60.1 12.3 57 8.3
2007-06-14 08:00:47 51°17.629 2°59.759 60.2 12.2 58 8.3
2007-06-14 08:00:52 51°17.638 2°59.782 60.2 12.2 58 8.2
2007-06-14 08:00:59 51°17.65 2°59.814 60.9 12.2 59 8.2
2007-06-14 08:01:02 51°17.655 2°59.828 61.5 12.2 60 8.1
2007-06-14 08:01:07 51°17.664 2°59.852 62.4 12.2 60 8.2
2007-06-14 08:01:12 51°17.672 2°59.875 62.6 12.2 61 8.1
2007-06-14 08:01:17 51°17.681 2°59.898 63.1 12.2 60 8
2007-06-14 08:01:22 51°17.689 2°59.922 63 12.2 61 8.3
2007-06-14 08:01:27 51°17.697 2°59.945 62.8 12.2 60 8.3
2007-06-14 08:01:32 51°17.706 2°59.969 62.7 12.3 60 8.3
2007-06-14 08:01:37 51°17.715 2°59.992 62.4 12.3 58 8.3
2007-06-14 08:01:42 51°17.724 3°0.015 61.6 12.2 58 8.3
2007-06-14 08:01:47 51°17.733 3°0.038 61 12.2 56 8.2
2007-06-14 08:01:52 51°17.742 3°0.06 60.1 12.1 56 8.3
2007-06-14 08:01:57 51°17.752 3°0.083 59.3 12.2 58 8.3
2007-06-14 08:02:02 51°17.761 3°0.105 59.9 12.2 57 8.3
2007-06-14 08:02:07 51°17.77 3°0.128 59.8 12.2 58 8.1
2007-06-14 08:02:13 51°17.781 3°0.155 59.8 12.1 58 8.1
2007-06-14 08:02:18 51°17.789 3°0.178 60.7 12.2 59 8.1
2007-06-14 08:02:23 51°17.798 3°0.201 61 12.1 59 8.1
2007-06-14 08:02:27 51°17.805 3°0.22 61.6 12.1 60 8.2
2007-06-14 08:02:32 51°17.813 3°0.243 62.4 12.1 60 7.9
2007-06-14 08:02:38 51°17.823 3°0.272 62.7 12.2 61 7.8
2007-06-14 08:02:42 51°17.83 3°0.29 63.1 12.1 61 7.9
2007-06-14 08:02:47 51°17.838 3°0.313 62.9 12.1 61 8
2007-06-14 08:02:53 51°17.848 3°0.341 63.1 12.1 61 7.9
2007-06-14 08:02:58 51°17.856 3°0.365 63.1 12.1 60 7.9
2007-06-14 08:03:02 51°17.863 3°0.383 63.1 12.1 61 7.9
2007-06-14 08:03:07 51°17.871 3°0.406 63.2 12.1 60 7.8
2007-06-14 08:03:13 51°17.881 3°0.434 63.1 12.1 60 7.8
2007-06-14 08:03:18 51°17.89 3°0.458 62.6 12.1 60 8
2007-06-14 08:03:22 51°17.897 3°0.476 62.5 12.2 59 8
2007-06-14 08:03:27 51°17.906 3°0.499 61.6 12.2 59 8
2007-06-14 08:03:32 51°17.915 3°0.521 61.2 12.2 55 7.9
2007-06-14 08:03:38 51°17.926 3°0.549 59.8 12.1 58 8
2007-06-14 08:03:42 51°17.933 3°0.566 59.8 12.2 56 7.9
2007-06-14 08:03:47 51°17.942 3°0.589 59.5 12.2 58 7.9
2007-06-14 08:03:52 51°17.951 3°0.612 59.7 12.1 59 7.9
2007-06-14 08:03:57 51°17.96 3°0.635 60.8 12.2 60 8
2007-06-14 08:04:02 51°17.969 3°0.658 61.7 12.3 60 8
2007-06-14 08:04:07 51°17.977 3°0.681 62.3 12.2 61 8
2007-06-14 08:04:12 51°17.985 3°0.705 63.1 12.2 60 7.9
2007-06-14 08:04:17 51°17.994 3°0.729 63.1 12.2 60 7.9
2007-06-14 08:04:22 51°18.002 3°0.752 62.6 12.2 60 8
2007-06-14 08:04:27 51°18.011 3°0.775 62.4 12.1 58 7.8
2007-06-14 08:04:32 51°18.02 3°0.798 61.5 12.1 58 7.7
2007-06-14 08:04:39 51°18.033 3°0.829 60.9 12.1 56 7.8
2007-06-14 08:04:42 51°18.038 3°0.842 59.8 12.1 56 7.8
2007-06-14 08:04:47 51°18.048 3°0.864 59.1 12 56 7.8
2007-06-14 08:04:52 51°18.057 3°0.886 58.6 12.1 55 7.7
2007-06-14 08:04:58 51°18.069 3°0.912 58 12.1 55 7.7
2007-06-14 08:05:02 51°18.076 3°0.93 57.5 12.1 56 7.6
2007-06-14 08:05:07 51°18.086 3°0.952 58.3 12.1 57 7.4
2007-06-14 08:05:13 51°18.097 3°0.98 59.4 12.2 58 7.7
2007-06-14 08:05:18 51°18.105 3°1.003 60.2 12.1 60 7.6
2007-06-14 08:05:22 51°18.112 3°1.021 61.3 12.1 60 7.7
2007-06-14 08:05:27 51°18.12 3°1.045 62.3 12.2 61 7.6
2007-06-14 08:05:32 51°18.128 3°1.069 63.1 12.1 62 7.6
2007-06-14 08:05:38 51°18.138 3°1.097 64 12.2 61 7.5
2007-06-14 08:05:42 51°18.144 3°1.116 64.4 12.2 62 7.6
2007-06-14 08:05:47 51°18.152 3°1.14 63.8 12.2 61 7.7
2007-06-14 08:05:52 51°18.161 3°1.163 63.8 12.2 59 7.7
2007-06-14 08:05:58 51°18.171 3°1.191 62.9 12.2 60 7.7
2007-06-14 08:06:02 51°18.178 3°1.209 62.3 12.2 56 7.7
2007-06-14 08:06:07 51°18.188 3°1.232 60.9 12.2 57 7.6
2007-06-14 08:06:12 51°18.197 3°1.254 59.8 12.2 55 7.6
2007-06-14 08:06:17 51°18.207 3°1.276 59.1 12.2 56 7.5
2007-06-14 08:06:22 51°18.216 3°1.299 58 12.2 55 7.8
2007-06-14 08:06:27 51°18.226 3°1.321 57.9 12.3 56 7.7
2007-06-14 08:06:32 51°18.236 3°1.344 58 12.3 55 7.6
2007-06-14 08:06:38 51°18.247 3°1.371 58 12.3 56 7.7
2007-06-14 08:06:42 51°18.255 3°1.389 58 12.3 56 7.7
2007-06-14 08:06:47 51°18.264 3°1.411 58.7 12.3 57 7.9
2007-06-14 08:06:52 51°18.273 3°1.434 59.3 12.3 59 7.8
2007-06-14 08:06:58 51°18.283 3°1.463 60.5 12.3 60 7.7
2007-06-14 08:07:03 51°18.292 3°1.487 62.4 12.3 61 7.5
2007-06-14 08:07:07 51°18.298 3°1.506 63.2 12.3 62 7.7
2007-06-14 08:07:13 51°18.307 3°1.535 64.3 12.3 63 7.5
2007-06-14 08:07:18 51°18.315 3°1.559 64.9 12.2 63 7.5
2007-06-14 08:07:22 51°18.321 3°1.579 65.4 12.3 63 7.7
2007-06-14 08:07:27 51°18.329 3°1.603 65.7 12.3 63 7.7
2007-06-14 08:07:33 51°18.338 3°1.632 65.1 12.2 62 7.7
2007-06-14 08:07:38 51°18.347 3°1.656 64.9 12.3 61 7.6
2007-06-14 08:07:42 51°18.354 3°1.673 64 12.2 57 7.7
2007-06-14 08:07:47 51°18.364 3°1.695 60.7 12.2 54 7.6
2007-06-14 08:07:52 51°18.375 3°1.716 57.5 12.3 48 7.5
2007-06-14 08:07:58 51°18.389 3°1.74 53.7 12.2 48 7.2
2007-06-14 08:08:02 51°18.399 3°1.755 51.4 12.1 45 7.5
2007-06-14 08:08:07 51°18.41 3°1.773 49.8 12.1 44 7.6
2007-06-14 08:08:12 51°18.423 3°1.791 47.6 12.1 42 5.4
2007-06-14 08:08:18 51°18.438 3°1.812 45.9 12.1 40 7.6
2007-06-14 08:08:22 51°18.449 3°1.826 44.4 12.1 40 -999
2007-06-14 08:08:27 51°18.462 3°1.843 43.6 12.1 40 7.3
2007-06-14 08:08:32 51°18.475 3°1.86 43.6 12.1 39 7.2
2007-06-14 08:08:38 51°18.49 3°1.879 43 12 38 7.3
2007-06-14 08:08:42 51°18.501 3°1.893 43.2 11.9 38 7.1
2007-06-14 08:08:47 51°18.514 3°1.908 42.6 11.9 33 7.3
2007-06-14 08:08:52 51°18.529 3°1.921 39.6 11.9 32 7.3
2007-06-14 08:08:57 51°18.543 3°1.934 36.9 12 28 7.3
2007-06-14 08:09:02 51°18.558 3°1.946 35.1 12 27 7.4
2007-06-14 08:09:07 51°18.573 3°1.958 33 12.1 25 7.5
2007-06-14 08:09:12 51°18.588 3°1.969 31.6 12 26 7.5
2007-06-14 08:09:18 51°18.606 3°1.983 30.5 12.1 24 7.5
2007-06-14 08:09:22 51°18.619 3°1.992 30 12.1 25 7.5
2007-06-14 08:09:27 51°18.634 3°2.003 29.6 12.1 25 7.5
2007-06-14 08:09:33 51°18.652 3°2.017 29.8 12.1 26 7.6
2007-06-14 08:09:38 51°18.667 3°2.028 30.3 12.2 26 7.6
2007-06-14 08:09:42 51°18.679 3°2.038 31 12.2 27 7.6
2007-06-14 08:09:47 51°18.694 3°2.051 31.8 12.3 28 7.6
2007-06-14 08:09:53 51°18.712 3°2.067 32.4 12.3 29 7.7
2007-06-14 08:09:58 51°18.726 3°2.081 33.4 12.2 32 7.7
2007-06-14 08:10:02 51°18.738 3°2.093 35.3 12.1 32 7.6
2007-06-14 08:10:07 51°18.752 3°2.108 36.4 12.1 34 7.9
2007-06-14 08:10:12 51°18.766 3°2.122 37.9 12.1 34 7.5
2007-06-14 08:10:18 51°18.782 3°2.141 38.7 12.1 35 7.8
2007-06-14 08:10:22 51°18.793 3°2.153 39.4 12.2 34 7.6
2007-06-14 08:10:27 51°18.807 3°2.168 39.4 12.3 34 7.8
2007-06-14 08:10:32 51°18.822 3°2.183 39 12.3 32 7.9
2007-06-14 08:10:38 51°18.839 3°2.2 37.5 12.3 31 7.6
2007-06-14 08:10:42 51°18.851 3°2.211 36.5 12.2 30 7.8
2007-06-14 08:10:47 51°18.866 3°2.224 35.2 12.2 28 7.8
2007-06-14 08:10:52 51°18.881 3°2.237 34.1 12.2 27 7.7
2007-06-14 08:10:57 51°18.896 3°2.249 33 12.2 26 7.7
2007-06-14 08:11:02 51°18.911 3°2.261 31.7 12.1 26 7.6
2007-06-14 08:11:07 51°18.926 3°2.272 31.5 12.1 26 7.6
2007-06-14 08:11:12 51°18.941 3°2.284 31.2 12.1 26 7.8
2007-06-14 08:11:17 51°18.957 3°2.295 31.1 12.1 25 7.7
2007-06-14 08:11:22 51°18.972 3°2.307 30.8 12.2 25 7.6
2007-06-14 08:11:27 51°18.987 3°2.317 29.9 12.3 24 7.8
2007-06-14 08:11:33 51°19.006 3°2.33 29.1 12.3 23 7.8
2007-06-14 08:11:38 51°19.022 3°2.34 28.6 12.2 22 7.7
2007-06-14 08:11:42 51°19.035 3°2.349 27.9 12.2 22 7.7
2007-06-14 08:11:47 51°19.05 3°2.359 27.5 12.1 22 7.7
2007-06-14 08:11:52 51°19.065 3°2.369 27.5 12.1 23 7.7
2007-06-14 08:11:58 51°19.084 3°2.382 27.7 12.1 24 7.7
2007-06-14 08:12:02 51°19.097 3°2.39 28.3 12.2 24 7.6
2007-06-14 08:12:07 51°19.112 3°2.401 29 12.2 25 7.8
2007-06-14 08:12:13 51°19.13 3°2.416 29.7 12.1 27 7.7
2007-06-14 08:12:18 51°19.145 3°2.429 31.1 12.1 28 7.7
2007-06-14 08:12:22 51°19.156 3°2.439 32.6 12.1 30 7.8
2007-06-14 08:12:27 51°19.171 3°2.453 33.8 12.2 30 7.7
2007-06-14 08:12:32 51°19.185 3°2.467 34.6 12.1 31 7.6
2007-06-14 08:12:38 51°19.203 3°2.483 35.3 12.1 30 7.7
2007-06-14 08:12:42 51°19.214 3°2.494 35.5 12.1 31 7.8
2007-06-14 08:12:47 51°19.229 3°2.507 35.5 12.1 28 7.8
2007-06-14 08:12:52 51°19.244 3°2.52 34.4 12.1 27 7.7
2007-06-14 08:12:57 51°19.259 3°2.53 33.1 12.2 24 7.6
2007-06-14 08:13:02 51°19.275 3°2.541 30.4 12.2 22 7.7
2007-06-14 08:13:07 51°19.29 3°2.55 28.3 12.1 20 7.7
2007-06-14 08:13:12 51°19.306 3°2.56 26.6 12.1 20 7.7
2007-06-14 08:13:17 51°19.322 3°2.568 25.6 12.1 19 7.6
2007-06-14 08:13:22 51°19.338 3°2.577 24.9 12.1 19 7.6
2007-06-14 08:13:27 51°19.354 3°2.586 24.5 12.1 19 7.7
2007-06-14 08:13:33 51°19.373 3°2.597 24.1 12.1 19 7.6
2007-06-14 08:13:38 51°19.389 3°2.605 24.1 12.2 20 7.5
2007-06-14 08:13:42 51°19.402 3°2.613 24.5 12.2 21 7.7
2007-06-14 08:13:47 51°19.417 3°2.624 25.8 12.1 23 7.5
2007-06-14 08:13:52 51°19.432 3°2.635 27.5 12 25 7.6
2007-06-14 08:13:58 51°19.45 3°2.65 29 12.1 27 7.7
2007-06-14 08:14:02 51°19.462 3°2.659 30.8 12.1 27 7.5
2007-06-14 08:14:07 51°19.477 3°2.672 31.8 12.1 28 5.5
2007-06-14 08:14:13 51°19.495 3°2.686 32.2 12 28 7.4
2007-06-14 08:14:18 51°19.51 3°2.699 32.6 12 27 7.5
2007-06-14 08:14:22 51°19.521 3°2.708 32.6 12 27 7.5
2007-06-14 08:14:27 51°19.536 3°2.72 32.2 12 26 7.5
2007-06-14 08:14:33 51°19.555 3°2.733 31.5 12 24 7.4
2007-06-14 08:14:38 51°19.57 3°2.743 30.5 12 22 7.4
2007-06-14 08:14:42 51°19.582 3°2.751 28.6 12 21 5.5
2007-06-14 08:14:47 51°19.598 3°2.76 26.8 12 20 7.4
2007-06-14 08:14:52 51°19.614 3°2.768 25.6 12 18 7.3
2007-06-14 08:14:58 51°19.632 3°2.778 24.1 11.9 18 7.3
2007-06-14 08:15:02 51°19.645 3°2.785 24 11.9 18 7.4
2007-06-14 08:15:07 51°19.661 3°2.793 23.3 11.9 18 5.5
2007-06-14 08:15:12 51°19.676 3°2.802 23.2 11.9 19 7.1
2007-06-14 08:15:17 51°19.692 3°2.81 23.4 11.9 19 5.4
2007-06-14 08:15:22 51°19.707 3°2.819 24.4 11.9 20 7.3
2007-06-14 08:15:27 51°19.723 3°2.829 24.9 11.9 22 7.3
2007-06-14 08:15:32 51°19.738 3°2.838 25.9 11.9 21 7.2
2007-06-14 08:15:37 51°19.753 3°2.849 26.6 11.9 24 7.4
2007-06-14 08:15:42 51°19.769 3°2.859 27.7 11.9 24 7
2007-06-14 08:15:47 51°19.784 3°2.871 28.8 11.9 25 7.1
2007-06-14 08:15:52 51°19.798 3°2.882 29.9 11.8 27 7.2
2007-06-14 08:15:57 51°19.812 3°2.895 31.2 11.8 29 6.9
2007-06-14 08:16:02 51°19.827 3°2.907 32.6 11.7 28 7.1
2007-06-14 08:16:07 51°19.841 3°2.92 33.4 11.7 30 7
2007-06-14 08:16:13 51°19.858 3°2.935 34.3 11.7 29 6.9
2007-06-14 08:16:18 51°19.872 3°2.948 34.3 11.7 29 7
2007-06-14 08:16:22 51°19.883 3°2.958 34.3 11.7 29 5.3
2007-06-14 08:16:27 51°19.898 3°2.97 33.9 11.7 27 6.6
2007-06-14 08:16:33 51°19.915 3°2.983 33.1 11.6 26 6.9
2007-06-14 08:16:38 51°19.93 3°2.994 32 11.6 24 7.1
2007-06-14 08:16:42 51°19.942 3°3.001 30.6 11.6 22 7
2007-06-14 08:16:47 51°19.957 3°3.01 28.2 11.7 19 6.6
2007-06-14 08:16:52 51°19.972 3°3.018 25.9 11.6 17 6.8
2007-06-14 08:16:58 51°19.991 3°3.026 24 11.6 17 6.8
2007-06-14 08:17:02 51°20.003 3°3.032 23 11.6 16 6.9
2007-06-14 08:17:07 51°20.019 3°3.039 22.2 11.6 16 6.9
2007-06-14 08:17:12 51°20.034 3°3.046 21.7 11.6 16 6.9
2007-06-14 08:17:17 51°20.05 3°3.053 21.4 11.7 16 7
2007-06-14 08:17:22 51°20.065 3°3.06 21.4 11.8 17 7.1
2007-06-14 08:17:27 51°20.081 3°3.069 22.1 11.8 19 7.1
2007-06-14 08:17:32 51°20.097 3°3.078 23.2 11.8 20 7
2007-06-14 08:17:37 51°20.112 3°3.087 24.5 11.8 22 5.3
2007-06-14 08:17:42 51°20.127 3°3.098 26 11.8 25 7.2
2007-06-14 08:17:47 51°20.141 3°3.11 28.6 11.8 28 7.2
2007-06-14 08:17:52 51°20.156 3°3.122 31.3 11.8 29 7.2
2007-06-14 08:17:58 51°20.173 3°3.138 33 11.9 30 7.2
2007-06-14 08:18:02 51°20.184 3°3.148 34.2 11.9 30 7.1
2007-06-14 08:18:07 51°20.198 3°3.162 34.9 11.9 31 7.3
2007-06-14 08:18:13 51°20.216 3°3.177 35.5 11.9 30 7.3
2007-06-14 08:18:17 51°20.227 3°3.188 35.2 11.9 29 7.3
2007-06-14 08:18:22 51°20.242 3°3.2 34.8 12 28 7.4
2007-06-14 08:18:27 51°20.256 3°3.212 34 12 27 7.4
2007-06-14 08:18:33 51°20.274 3°3.226 32.9 12 25 7.5
2007-06-14 08:18:38 51°20.29 3°3.237 31.5 12 23 7.5
2007-06-14 08:18:42 51°20.302 3°3.244 29.8 11.9 21 7.4
2007-06-14 08:18:47 51°20.318 3°3.253 27.6 11.9 20 7.5
2007-06-14 08:18:53 51°20.337 3°3.264 26.1 12.1 19 7.6
2007-06-14 08:18:58 51°20.352 3°3.272 25.4 12.1 19 7.6
2007-06-14 08:19:02 51°20.365 3°3.279 24.9 12 19 7.6
2007-06-14 08:19:07 51°20.381 3°3.288 24.6 12.1 19 7.7
2007-06-14 08:19:13 51°20.4 3°3.299 24.8 12.1 20 7.9
2007-06-14 08:19:18 51°20.415 3°3.308 25.4 12.2 21 7.9
2007-06-14 08:19:22 51°20.428 3°3.316 26.1 12.2 22 7.9
2007-06-14 08:19:27 51°20.444 3°3.328 27 12.3 24 8
2007-06-14 08:19:32 51°20.459 3°3.339 28.8 12.3 26 8.3
2007-06-14 08:19:38 51°20.478 3°3.354 30.2 12.4 26 8.3
2007-06-14 08:19:42 51°20.49 3°3.363 31.2 12.3 26 8.2
2007-06-14 08:19:47 51°20.505 3°3.376 31.8 12.3 27 8
2007-06-14 08:19:52 51°20.52 3°3.387 31.9 12.2 26 8.2
2007-06-14 08:19:57 51°20.536 3°3.399 31.6 12.2 24 8.2
2007-06-14 08:20:02 51°20.551 3°3.409 30.6 12.2 23 8.2
2007-06-14 08:20:07 51°20.567 3°3.42 29.6 12.2 22 8.2
2007-06-14 08:20:12 51°20.583 3°3.429 28.6 12.2 22 8.4
2007-06-14 08:20:17 51°20.599 3°3.439 27.8 12.3 21 8.4
2007-06-14 08:20:22 51°20.615 3°3.449 27.4 12.3 21 8.4
2007-06-14 08:20:27 51°20.63 3°3.459 27.3 12.2 22 8.4
2007-06-14 08:20:33 51°20.649 3°3.472 27.5 12.3 22 8.5
2007-06-14 08:20:38 51°20.665 3°3.482 27.9 12.3 23 8.7
2007-06-14 08:20:42 51°20.677 3°3.491 28.7 12.3 24 8.6
2007-06-14 08:20:47 51°20.693 3°3.502 29.5 12.3 25 8.8
2007-06-14 08:20:52 51°20.708 3°3.514 30.3 12.3 25 8.7
2007-06-14 08:20:58 51°20.727 3°3.528 30.7 12.3 25 8.8
2007-06-14 08:21:02 51°20.739 3°3.537 31.1 12.3 25 8.8
2007-06-14 08:21:07 51°20.755 3°3.548 31.1 12.2 25 9.1
2007-06-14 08:21:13 51°20.773 3°3.561 30.6 12.3 24 9
2007-06-14 08:21:18 51°20.789 3°3.572 30.2 12.3 23 9
2007-06-14 08:21:22 51°20.802 3°3.58 29.6 12.3 22 9.1
2007-06-14 08:21:27 51°20.817 3°3.59 29 12.3 22 9
2007-06-14 08:21:32 51°20.833 3°3.6 28.7 12.2 22 9.2
2007-06-14 08:21:38 51°20.852 3°3.613 28.7 12.3 22 9.2
2007-06-14 08:21:42 51°20.865 3°3.622 28.9 12.3 24 9.1
2007-06-14 08:21:47 51°20.88 3°3.632 29.3 12.2 23 9.2
2007-06-14 08:21:52 51°20.895 3°3.644 29.5 12.2 26 9.3
2007-06-14 08:21:57 51°20.911 3°3.656 30.8 12.2 26 9.3
2007-06-14 08:22:03 51°20.929 3°3.671 31.9 12.2 28 9.3
2007-06-14 08:22:07 51°20.94 3°3.681 33.1 12.2 28 9.4
2007-06-14 08:22:12 51°20.955 3°3.694 33.6 12.2 29 9.4
2007-06-14 08:22:17 51°20.97 3°3.707 34.2 12.2 28 9.6
2007-06-14 08:22:22 51°20.985 3°3.72 34.5 12.3 29 9.6
2007-06-14 08:22:27 51°21 3°3.733 34.7 12.2 28 9.6
2007-06-14 08:22:33 51°21.018 3°3.748 34.5 12.2 28 9.6
2007-06-14 08:22:38 51°21.033 3°3.761 34.1 12.2 27 9.7
2007-06-14 08:22:42 51°21.045 3°3.771 33.7 12.3 28 9.7
2007-06-14 08:22:47 51°21.06 3°3.783 33.4 12.3 27 9.9
2007-06-14 08:22:52 51°21.075 3°3.795 33.3 12.3 27 9.9
2007-06-14 08:22:58 51°21.094 3°3.81 33.1 12.3 27 9.9
2007-06-14 08:23:02 51°21.106 3°3.82 33 12.3 27 10
2007-06-14 08:23:07 51°21.121 3°3.832 32.9 12.3 27 9.9
2007-06-14 08:23:13 51°21.139 3°3.848 33.3 12.2 28 9.8
2007-06-14 08:23:18 51°21.154 3°3.86 33.6 12.2 27 10.1
2007-06-14 08:23:22 51°21.166 3°3.87 33.7 12.3 27 10.1
2007-06-14 08:23:27 51°21.181 3°3.882 33.6 12.2 27 10.1
2007-06-14 08:23:32 51°21.196 3°3.895 33.4 12.3 28 10.2
2007-06-14 08:23:38 51°21.214 3°3.909 33.6 12.2 27 10
2007-06-14 08:23:42 51°21.226 3°3.919 33.4 12.2 28 10.2
2007-06-14 08:23:47 51°21.241 3°3.932 33.7 12.2 27 10.3
2007-06-14 08:23:52 51°21.256 3°3.945 33.6 12.2 28 10.3
2007-06-14 08:23:59 51°21.277 3°3.962 33.8 12.2 27 10.4
2007-06-14 08:24:03 51°21.289 3°3.972 33.8 12.2 28 10.4
2007-06-14 08:24:07 51°21.301 3°3.982 33.8 12.2 28 10.5
2007-06-14 08:24:12 51°21.316 3°3.995 33.8 12.3 28 10.6
2007-06-14 08:24:17 51°21.332 3°4.008 33.6 12.2 27 10.3
2007-06-14 08:24:23 51°21.35 3°4.023 33.5 12.2 28 10.6
2007-06-14 08:24:27 51°21.362 3°4.033 33.5 12.3 27 10.7
2007-06-14 08:24:32 51°21.377 3°4.045 33.5 12.3 28 10.6
2007-06-14 08:24:37 51°21.392 3°4.058 33.5 12.3 28 10.7
2007-06-14 08:24:43 51°21.41 3°4.073 33.6 12.3 28 10.7
2007-06-14 08:24:47 51°21.422 3°4.083 33.7 12.2 28 10.7
2007-06-14 08:24:52 51°21.437 3°4.096 33.9 12.3 28 10.8
2007-06-14 08:24:58 51°21.455 3°4.111 33.8 12.3 28 10.8
2007-06-14 08:25:02 51°21.467 3°4.121 33.8 12.3 27 10.9
2007-06-14 08:25:07 51°21.482 3°4.134 33.5 12.3 27 10.9
2007-06-14 08:25:12 51°21.497 3°4.146 33.3 12.4 28 11
2007-06-14 08:25:18 51°21.515 3°4.161 33.2 12.3 27 11
2007-06-14 08:25:22 51°21.528 3°4.172 33.3 12.3 27 11
2007-06-14 08:25:27 51°21.543 3°4.184 33.3 12.3 27 11
2007-06-14 08:25:33 51°21.561 3°4.199 33.2 12.3 28 11.1
2007-06-14 08:25:38 51°21.576 3°4.212 33.3 12.3 28 11.1
2007-06-14 08:25:42 51°21.588 3°4.222 33.4 12.3 27 11.2
2007-06-14 08:25:47 51°21.603 3°4.235 33.5 12.4 28 11.1
2007-06-14 08:25:53 51°21.622 3°4.25 33.5 12.3 27 11.2
2007-06-14 08:25:59 51°21.64 3°4.265 33.3 12.4 28 11.2
2007-06-14 08:26:03 51°21.652 3°4.275 33.3 12.3 27 11.2
2007-06-14 08:26:07 51°21.664 3°4.285 33.3 12.4 28 11.2
2007-06-14 08:26:12 51°21.679 3°4.298 33.4 12.3 27 11.2
2007-06-14 08:26:19 51°21.7 3°4.316 33.5 12.3 28 11.3
2007-06-14 08:26:23 51°21.712 3°4.326 33.6 12.3 27 11.3
2007-06-14 08:26:27 51°21.725 3°4.336 33.3 12.4 28 11.3
2007-06-14 08:26:32 51°21.74 3°4.349 33.5 12.4 27 11.3
2007-06-14 08:26:37 51°21.755 3°4.361 33.4 12.4 27 11.4
2007-06-14 08:26:43 51°21.773 3°4.376 33.3 12.4 27 11.4
2007-06-14 08:26:47 51°21.786 3°4.386 33.2 12.4 28 11.4
2007-06-14 08:26:52 51°21.801 3°4.4 33.6 12.4 29 11.4
2007-06-14 08:26:59 51°21.821 3°4.419 34.5 12.3 30 11.5
2007-06-14 08:27:02 51°21.83 3°4.428 35.6 12.3 31 11.6
2007-06-14 08:27:07 51°21.845 3°4.441 36.2 12.3 31 11.6
2007-06-14 08:27:12 51°21.859 3°4.456 36.8 12.3 31 11.6
2007-06-14 08:27:19 51°21.88 3°4.476 37 12.3 31 11.6
2007-06-14 08:27:23 51°21.891 3°4.487 37.1 12.3 31 11.5
2007-06-14 08:27:27 51°21.903 3°4.498 37 12.3 31 11.6
2007-06-14 08:27:33 51°21.921 3°4.515 36.8 12.3 32 11.5
2007-06-14 08:27:38 51°21.935 3°4.529 37 12.3 31 11.6
2007-06-14 08:27:43 51°21.95 3°4.543 36.7 12.3 31 11.6
2007-06-14 08:27:47 51°21.962 3°4.554 36.6 12.3 30 11.6
2007-06-14 08:27:53 51°21.98 3°4.571 36.3 12.2 31 11.5
2007-06-14 08:27:58 51°21.994 3°4.585 36.1 12.3 30 11.7
2007-06-14 08:28:02 51°22.006 3°4.596 36.2 12.3 31 11.6
2007-06-14 08:28:07 51°22.021 3°4.61 36.3 12.3 31 11.7
2007-06-14 08:28:12 51°22.035 3°4.624 36.5 12.3 30 11.7
2007-06-14 08:28:18 51°22.053 3°4.641 36.5 12.3 31 11.6
2007-06-14 08:28:22 51°22.065 3°4.652 37 12.3 31 11.7
2007-06-14 08:28:27 51°22.079 3°4.667 36.8 12.3 31 11.8
2007-06-14 08:28:32 51°22.094 3°4.681 36.8 12.3 32 11.8
2007-06-14 08:28:37 51°22.108 3°4.695 36.9 12.3 31 11.7
2007-06-14 08:28:42 51°22.123 3°4.709 36.7 12.2 31 11.7
2007-06-14 08:28:47 51°22.137 3°4.723 36.6 12.3 31 11.8
2007-06-14 08:28:52 51°22.152 3°4.737 36.7 12.3 31 11.9
2007-06-14 08:28:57 51°22.166 3°4.751 36.4 12.3 32 11.8
2007-06-14 08:29:03 51°22.184 3°4.768 36.8 12.3 31 11.7
2007-06-14 08:29:07 51°22.196 3°4.78 36.7 12.3 32 11.8
2007-06-14 08:29:12 51°22.21 3°4.793 37 12.3 31 11.8
2007-06-14 08:29:18 51°22.228 3°4.811 36.7 12.2 31 11.9
2007-06-14 08:29:22 51°22.239 3°4.821 36.6 12 30 11.8
2007-06-14 08:29:27 51°22.253 3°4.835 36.2 11.8 32 11.8
2007-06-14 08:29:32 51°22.267 3°4.848 36.4 11.7 31 11.8
2007-06-14 08:29:38 51°22.283 3°4.865 36.4 11.6 32 11.8
2007-06-14 08:29:42 51°22.294 3°4.875 36.5 11.5 31 11.7